createdAt,value
2018-04-19T00:00:21.461Z,11.57
2018-04-19T00:02:50.381Z,11.10
2018-04-19T00:05:19.281Z,12.43
2018-04-19T00:07:48.155Z,15.97
2018-04-19T00:10:16.313Z,11.73
2018-04-19T00:12:44.409Z,12.77
2018-04-19T00:15:12.564Z,10.57
2018-04-19T00:17:40.665Z,12.37
2018-04-19T00:20:08.771Z,13.13
2018-04-19T00:22:36.864Z,11.97
2018-04-19T00:25:05.033Z,14.40
2018-04-19T00:27:33.157Z,12.87
2018-04-19T00:30:02.040Z,12.33
2018-04-19T00:32:30.140Z,13.33
2018-04-19T00:34:58.284Z,14.37
2018-04-19T00:37:26.399Z,12.07
2018-04-19T00:39:54.524Z,13.80
2018-04-19T00:42:22.655Z,13.77
2018-04-19T00:44:50.770Z,13.47
2018-04-19T00:47:19.633Z,14.43
2018-04-19T00:49:47.779Z,14.63
2018-04-19T00:52:15.847Z,14.50
2018-04-19T00:54:44.721Z,14.20
2018-04-19T00:57:12.850Z,15.37
2018-04-19T00:59:41.725Z,15.70
2018-04-19T01:02:09.826Z,15.60
2018-04-19T01:04:38.698Z,16.87
2018-04-19T01:07:06.801Z,20.50
2018-04-19T01:09:34.948Z,17.97
2018-04-19T01:12:03.635Z,16.47
2018-04-19T01:14:32.213Z,16.80
2018-04-19T01:17:02.198Z,17.13
2018-04-19T01:19:31.024Z,17.33
2018-04-19T01:21:59.795Z,17.50
2018-04-19T01:24:27.870Z,18.10
2018-04-19T01:26:56.009Z,16.37
2018-04-19T01:29:24.149Z,18.67
2018-04-19T01:31:52.275Z,17.83
2018-04-19T01:34:21.154Z,21.77
2018-04-19T01:36:49.274Z,18.80
2018-04-19T01:39:17.371Z,19.20
2018-04-19T01:41:46.240Z,20.73
2018-04-19T01:44:15.102Z,20.70
2018-04-19T01:46:43.215Z,20.70
2018-04-19T01:49:11.327Z,19.00
2018-04-19T01:51:40.365Z,19.13
2018-04-19T01:54:08.479Z,20.23
2018-04-19T01:56:36.576Z,18.80
2018-04-19T01:59:05.444Z,20.53
2018-04-19T02:01:33.630Z,19.23
2018-04-19T02:04:01.707Z,19.10
2018-04-19T02:06:29.866Z,20.80
2018-04-19T02:08:57.937Z,20.30
2018-04-19T02:11:26.860Z,19.70
2018-04-19T02:13:55.712Z,19.27
2018-04-19T02:16:24.628Z,20.43
2018-04-19T02:18:52.751Z,21.43
2018-04-19T02:21:20.860Z,21.00
2018-04-19T02:23:48.987Z,21.87
2018-04-19T02:26:17.078Z,20.30
2018-04-19T02:28:45.194Z,19.20
2018-04-19T02:31:13.302Z,21.63
2018-04-19T02:33:41.429Z,21.03
2018-04-19T02:36:09.585Z,19.23
2018-04-19T02:38:37.737Z,19.87
2018-04-19T02:41:05.866Z,19.70
2018-04-19T02:43:33.963Z,20.43
2018-04-19T02:46:02.439Z,20.33
2018-04-19T02:48:30.529Z,18.57
2018-04-19T02:50:58.632Z,20.13
2018-04-19T02:53:26.728Z,22.57
2018-04-19T02:55:55.583Z,22.43
2018-04-19T02:58:23.703Z,20.30
2018-04-19T03:00:51.857Z,20.10
2018-04-19T03:03:19.995Z,20.33
2018-04-19T03:05:48.855Z,19.67
2018-04-19T03:08:16.961Z,19.83
2018-04-19T03:10:45.060Z,21.07
2018-04-19T03:13:13.925Z,19.60
2018-04-19T03:15:42.026Z,19.30
2018-04-19T03:18:10.217Z,18.90
2018-04-19T03:20:38.363Z,21.00
2018-04-19T03:23:06.513Z,21.00
2018-04-19T03:25:35.391Z,21.83
2018-04-19T03:28:03.518Z,21.50
2018-04-19T03:30:31.625Z,22.27
2018-04-19T03:32:59.813Z,22.43
2018-04-19T03:35:27.941Z,22.37
2018-04-19T03:37:56.061Z,26.90
2018-04-19T03:40:24.153Z,20.37
2018-04-19T03:42:52.302Z,23.60
2018-04-19T03:45:21.185Z,23.57
2018-04-19T03:47:50.797Z,22.80
2018-04-19T03:50:20.421Z,22.63
2018-04-19T03:52:48.528Z,23.80
2018-04-19T03:55:16.630Z,21.47
2018-04-19T03:57:45.518Z,23.17
2018-04-19T04:00:13.603Z,25.10
2018-04-19T04:02:42.496Z,29.07
2018-04-19T04:05:10.644Z,24.47
2018-04-19T04:07:38.732Z,25.10
2018-04-19T04:10:06.857Z,24.23
2018-04-19T04:12:35.011Z,25.03
2018-04-19T04:15:03.111Z,24.37
2018-04-19T04:17:43.057Z,24.70
2018-04-19T04:20:18.746Z,23.20
2018-04-19T04:23:00.381Z,24.90
2018-04-19T04:25:29.279Z,28.60
2018-04-19T04:27:58.143Z,25.93
2018-04-19T04:30:26.288Z,24.83
2018-04-19T04:32:54.382Z,24.13
2018-04-19T04:35:22.550Z,24.37
2018-04-19T04:37:51.459Z,26.33
2018-04-19T04:40:19.616Z,29.27
2018-04-19T04:42:47.725Z,24.07
2018-04-19T04:45:15.836Z,24.37
2018-04-19T04:47:43.974Z,23.73
2018-04-19T04:50:12.068Z,23.83
2018-04-19T04:52:40.926Z,24.53
2018-04-19T04:55:09.020Z,21.43
2018-04-19T04:57:37.125Z,19.37
2018-04-19T05:00:05.228Z,19.03
2018-04-19T05:02:34.272Z,17.70
2018-04-19T05:05:02.374Z,17.17
2018-04-19T05:07:30.472Z,17.67
2018-04-19T05:09:58.618Z,16.33
2018-04-19T05:12:26.718Z,15.87
2018-04-19T05:14:54.805Z,14.30
2018-04-19T05:17:22.910Z,14.07
2018-04-19T05:19:51.078Z,14.40
2018-04-19T05:22:19.180Z,14.67
2018-04-19T05:24:47.306Z,14.77
2018-04-19T05:27:15.429Z,14.70
2018-04-19T05:29:43.524Z,13.90
2018-04-19T05:32:11.617Z,13.97
2018-04-19T05:34:39.786Z,13.10
2018-04-19T05:37:07.898Z,14.37
2018-04-19T05:39:35.977Z,13.70
2018-04-19T05:42:04.117Z,14.07
2018-04-19T05:44:32.213Z,14.40
2018-04-19T05:47:00.313Z,14.47
2018-04-19T05:49:28.467Z,14.63
2018-04-19T05:51:56.578Z,13.00
2018-04-19T05:54:24.741Z,13.80
2018-04-19T05:56:52.811Z,12.20
2018-04-19T05:59:20.925Z,12.70
2018-04-19T06:01:49.076Z,13.50
2018-04-19T06:04:17.935Z,13.33
2018-04-19T06:06:46.031Z,12.27
2018-04-19T06:09:14.102Z,12.80
2018-04-19T06:11:42.198Z,14.07
2018-04-19T06:14:10.290Z,14.67
2018-04-19T06:16:39.522Z,14.37
2018-04-19T06:19:08.386Z,14.67
2018-04-19T06:21:36.543Z,14.07
2018-04-19T06:24:04.641Z,14.37
2018-04-19T06:26:32.827Z,14.10
2018-04-19T06:29:00.910Z,13.63
2018-04-19T06:31:29.059Z,14.23
2018-04-19T06:33:57.929Z,13.40
2018-04-19T06:36:26.045Z,14.38
2018-04-19T06:38:54.917Z,16.05
2018-04-19T06:41:23.068Z,15.80
2018-04-19T06:43:51.144Z,16.60
2018-04-19T06:46:19.233Z,14.55
2018-04-19T06:48:47.336Z,15.35
2018-04-19T06:51:15.461Z,15.80
2018-04-19T06:53:43.540Z,14.40
2018-04-19T06:56:12.391Z,12.98
2018-04-19T06:58:40.481Z,14.27
2018-04-19T07:01:08.581Z,13.77
2018-04-19T07:03:36.753Z,13.52
2018-04-19T07:06:04.840Z,13.75
2018-04-19T07:08:32.946Z,14.82
2018-04-19T07:11:01.064Z,13.25
2018-04-19T07:13:29.963Z,15.73
2018-04-19T07:15:58.043Z,14.35
2018-04-19T07:18:26.138Z,14.52
2018-04-19T07:20:55.008Z,14.60
2018-04-19T07:23:23.175Z,15.05
2018-04-19T07:25:51.314Z,14.40
2018-04-19T07:28:20.210Z,14.07
2018-04-19T07:30:49.096Z,11.02
2018-04-19T07:33:17.184Z,14.30
2018-04-19T07:35:45.257Z,13.48
2018-04-19T07:38:13.417Z,12.45
2018-04-19T07:40:42.659Z,9.82
2018-04-19T07:43:10.760Z,9.13
2018-04-19T07:45:39.630Z,8.50
2018-04-19T07:48:07.717Z,8.70
2018-04-19T07:50:35.870Z,9.18
2018-04-19T07:53:04.021Z,8.60
2018-04-19T07:55:32.111Z,8.90
2018-04-19T07:58:00.993Z,7.87
2018-04-19T08:00:29.071Z,8.85
2018-04-19T08:02:57.201Z,9.65
2018-04-19T08:05:25.313Z,8.27
2018-04-19T08:07:54.122Z,7.32
2018-04-19T08:10:22.209Z,7.50
2018-04-19T08:12:50.367Z,7.12
2018-04-19T08:15:18.441Z,7.18
2018-04-19T08:17:47.338Z,6.78
2018-04-19T08:20:16.188Z,6.35
2018-04-19T08:22:44.308Z,6.85
2018-04-19T08:25:13.169Z,6.62
2018-04-19T08:27:41.314Z,6.53
2018-04-19T08:30:10.195Z,5.93
2018-04-19T08:32:38.281Z,7.12
2018-04-19T08:35:07.143Z,6.43
2018-04-19T08:37:35.219Z,5.65
2018-04-19T08:40:03.297Z,6.30
2018-04-19T08:42:31.376Z,6.32
2018-04-19T08:44:59.453Z,5.97
2018-04-19T08:47:27.623Z,5.83
2018-04-19T08:49:56.471Z,5.23
2018-04-19T08:52:24.547Z,5.82
2018-04-19T08:54:52.618Z,5.90
2018-04-19T08:57:20.735Z,5.03
2018-04-19T08:59:48.878Z,5.65
2018-04-19T09:02:16.967Z,5.15
2018-04-19T09:04:45.097Z,5.43
2018-04-19T09:07:14.575Z,5.37
2018-04-19T09:09:42.590Z,5.87
2018-04-19T09:12:10.640Z,5.72
2018-04-19T09:14:38.729Z,5.37
2018-04-19T09:17:06.833Z,5.25
2018-04-19T09:19:34.996Z,4.82
2018-04-19T09:22:03.803Z,4.93
2018-04-19T09:24:31.892Z,4.68
2018-04-19T09:26:59.979Z,5.35
2018-04-19T09:29:28.079Z,5.15
2018-04-19T09:31:56.134Z,4.80
2018-04-19T09:34:24.213Z,4.60
2018-04-19T09:36:52.322Z,4.95
2018-04-19T09:39:20.387Z,4.78
2018-04-19T09:41:48.455Z,5.00
2018-04-19T09:44:16.564Z,4.20
2018-04-19T09:46:44.642Z,4.70
2018-04-19T09:49:12.723Z,4.68
2018-04-19T09:51:40.793Z,4.35
2018-04-19T09:54:08.988Z,4.72
2018-04-19T09:56:36.947Z,4.72
2018-04-19T09:59:11.637Z,4.00
2018-04-19T10:01:45.536Z,4.37
2018-04-19T10:04:13.755Z,4.60
2018-04-19T10:06:42.147Z,4.40
2018-04-19T10:09:10.243Z,4.22
2018-04-19T10:11:38.352Z,4.75
2018-04-19T10:14:07.234Z,4.20
2018-04-19T10:16:35.335Z,4.00
2018-04-19T10:19:03.424Z,4.22
2018-04-19T10:21:31.503Z,3.83
2018-04-19T10:24:00.362Z,4.10
2018-04-19T10:26:28.559Z,4.32
2018-04-19T10:28:56.647Z,3.70
2018-04-19T10:31:24.747Z,4.20
2018-04-19T10:33:52.879Z,3.87
2018-04-19T10:36:21.001Z,3.78
2018-04-19T10:38:49.091Z,3.92
2018-04-19T10:41:17.270Z,4.70
2018-04-19T10:43:45.313Z,4.18
2018-04-19T10:46:13.422Z,4.57
2018-04-19T10:48:41.529Z,4.00
2018-04-19T10:51:09.630Z,3.58
2018-04-19T10:53:37.765Z,4.43
2018-04-19T10:56:05.883Z,4.15
2018-04-19T10:58:33.983Z,4.32
2018-04-19T11:01:02.193Z,3.80
2018-04-19T11:03:30.967Z,3.80
2018-04-19T11:05:59.094Z,3.62
2018-04-19T11:08:27.973Z,3.92
2018-04-19T11:10:56.301Z,4.07
2018-04-19T11:13:24.395Z,4.07
2018-04-19T11:15:52.569Z,4.35
2018-04-19T11:18:20.630Z,4.45
2018-04-19T11:20:49.508Z,4.72
2018-04-19T11:23:17.608Z,4.25
2018-04-19T11:25:45.758Z,4.40
2018-04-19T11:28:13.853Z,4.55
2018-04-19T11:30:42.015Z,5.45
2018-04-19T11:33:10.084Z,4.62
2018-04-19T11:35:38.228Z,4.62
2018-04-19T11:38:06.331Z,4.20
2018-04-19T11:40:35.202Z,4.40
2018-04-19T11:43:03.255Z,4.30
2018-04-19T11:45:31.332Z,5.12
2018-04-19T11:47:59.419Z,5.00
2018-04-19T11:50:27.495Z,5.10
2018-04-19T11:52:55.571Z,5.05
2018-04-19T11:55:23.668Z,5.87
2018-04-19T11:57:51.752Z,5.12
2018-04-19T12:00:19.819Z,5.12
2018-04-19T12:02:48.669Z,5.15
2018-04-19T12:05:16.765Z,5.80
2018-04-19T12:07:45.092Z,5.70
2018-04-19T12:10:13.166Z,5.35
2018-04-19T12:12:42.087Z,5.78
2018-04-19T12:15:10.958Z,5.07
2018-04-19T12:17:39.088Z,5.93
2018-04-19T12:20:07.166Z,6.85
2018-04-19T12:22:35.280Z,5.78
2018-04-19T12:25:03.350Z,6.20
2018-04-19T12:27:31.455Z,6.43
2018-04-19T12:29:59.552Z,6.00
2018-04-19T12:32:27.653Z,6.05
2018-04-19T12:34:56.502Z,7.00
2018-04-19T12:37:24.661Z,7.05
2018-04-19T12:39:52.702Z,8.00
2018-04-19T12:42:20.791Z,7.80
2018-04-19T12:44:48.847Z,7.00
2018-04-19T12:47:16.930Z,8.35
2018-04-19T12:49:45.025Z,7.82
2018-04-19T12:52:13.159Z,6.80
2018-04-19T12:54:41.249Z,7.70
2018-04-19T12:57:09.345Z,7.57
2018-04-19T12:59:38.911Z,8.27
2018-04-19T13:02:07.011Z,6.47
2018-04-19T13:04:35.068Z,6.05
2018-04-19T13:07:03.155Z,6.43
2018-04-19T13:09:31.258Z,7.05
2018-04-19T13:11:59.400Z,8.05
2018-04-19T13:14:27.492Z,7.90
2018-04-19T13:16:55.604Z,7.87
2018-04-19T13:19:23.702Z,8.57
2018-04-19T13:21:51.781Z,6.65
2018-04-19T13:24:19.885Z,6.18
2018-04-19T13:26:47.984Z,5.72
2018-04-19T13:29:16.137Z,7.35
2018-04-19T13:31:44.308Z,6.45
2018-04-19T13:34:12.383Z,8.20
2018-04-19T13:36:40.509Z,8.48
2018-04-19T13:39:08.596Z,7.87
2018-04-19T13:41:36.683Z,7.57
2018-04-19T13:44:04.754Z,7.53
2018-04-19T13:46:32.898Z,11.30
2018-04-19T13:49:01.004Z,8.13
2018-04-19T13:51:29.073Z,8.93
2018-04-19T13:53:57.222Z,8.10
2018-04-19T13:56:26.057Z,8.30
2018-04-19T13:58:54.144Z,8.30
2018-04-19T14:01:22.236Z,8.45
2018-04-19T14:03:50.377Z,8.70
2018-04-19T14:06:19.258Z,8.70
2018-04-19T14:08:47.399Z,9.35
2018-04-19T14:11:15.505Z,9.18
2018-04-19T14:13:43.623Z,10.25
2018-04-19T14:16:11.716Z,9.00
2018-04-19T14:18:39.801Z,9.20
2018-04-19T14:21:08.005Z,9.60
2018-04-19T14:23:36.072Z,8.50
2018-04-19T14:26:04.234Z,10.60
2018-04-19T14:28:32.304Z,8.40
2018-04-19T14:31:00.396Z,8.40
2018-04-19T14:33:28.494Z,7.65
2018-04-19T14:35:56.595Z,7.68
2018-04-19T14:38:24.739Z,10.40
2018-04-19T14:40:52.963Z,7.32
2018-04-19T14:43:21.081Z,8.02
2018-04-19T14:45:49.232Z,10.13
2018-04-19T14:48:17.308Z,9.30
2018-04-19T14:50:45.469Z,8.23
2018-04-19T14:53:13.531Z,8.07
2018-04-19T14:55:41.638Z,7.50
2018-04-19T14:58:09.736Z,7.10
2018-04-19T15:00:37.809Z,5.93
2018-04-19T15:03:05.887Z,6.70
2018-04-19T15:05:34.088Z,5.90
2018-04-19T15:08:02.195Z,7.20
2018-04-19T15:10:30.309Z,8.93
2018-04-19T15:12:59.164Z,7.97
2018-04-19T15:15:27.296Z,7.60
2018-04-19T15:17:56.131Z,6.60
2018-04-19T15:20:24.288Z,6.63
2018-04-19T15:22:53.148Z,6.77
2018-04-19T15:25:21.308Z,6.47
2018-04-19T15:27:49.443Z,6.47
2018-04-19T15:30:17.595Z,7.10
2018-04-19T15:32:45.693Z,7.83
2018-04-19T15:35:13.843Z,7.40
2018-04-19T15:37:41.953Z,9.67
2018-04-19T15:40:10.077Z,10.80
2018-04-19T15:42:38.943Z,9.80
2018-04-19T15:45:07.075Z,7.47
2018-04-19T15:47:35.929Z,7.43
2018-04-19T15:50:04.068Z,6.60
2018-04-19T15:52:32.143Z,5.70
2018-04-19T15:55:00.988Z,8.47
2018-04-19T15:57:29.050Z,7.73
2018-04-19T15:59:57.184Z,6.57
2018-04-19T16:02:25.292Z,6.03
2018-04-19T16:04:54.175Z,6.53
2018-04-19T16:07:22.223Z,7.00
2018-04-19T16:09:50.324Z,7.17
2018-04-19T16:12:18.395Z,6.27
2018-04-19T16:14:46.513Z,7.03
2018-04-19T16:17:14.603Z,7.10
2018-04-19T16:19:42.675Z,6.00
2018-04-19T16:22:10.823Z,6.43
2018-04-19T16:24:38.929Z,6.27
2018-04-19T16:27:07.027Z,6.33
2018-04-19T16:29:35.188Z,7.03
2018-04-19T16:32:03.301Z,5.73
2018-04-19T16:34:31.425Z,6.10
2018-04-19T16:37:00.288Z,6.20
2018-04-19T16:39:28.396Z,5.73
2018-04-19T16:41:56.527Z,6.50
2018-04-19T16:44:24.621Z,6.03
2018-04-19T16:46:52.689Z,5.90
2018-04-19T16:49:20.764Z,6.30
2018-04-19T16:51:48.888Z,5.77
2018-04-19T16:54:16.985Z,6.00
2018-04-19T16:56:45.085Z,5.77
2018-04-19T16:59:13.227Z,5.27
2018-04-19T17:01:41.305Z,5.80
2018-04-19T17:04:09.427Z,6.57
2018-04-19T17:06:37.516Z,5.37
2018-04-19T17:09:06.371Z,4.50
2018-04-19T17:11:34.448Z,6.23
2018-04-19T17:14:02.602Z,4.40
2018-04-19T17:16:31.461Z,5.17
2018-04-19T17:18:59.603Z,5.20
2018-04-19T17:21:28.474Z,4.53
2018-04-19T17:23:56.579Z,4.43
2018-04-19T17:26:24.740Z,4.40
2018-04-19T17:28:52.823Z,4.63
2018-04-19T17:31:20.940Z,5.77
2018-04-19T17:33:49.810Z,5.20
2018-04-19T17:36:17.936Z,4.30
2018-04-19T17:38:46.823Z,4.77
2018-04-19T17:41:14.972Z,4.80
2018-04-19T17:43:43.116Z,4.33
2018-04-19T17:46:12.015Z,4.67
2018-04-19T17:48:40.884Z,4.53
2018-04-19T17:51:09.009Z,4.37
2018-04-19T17:53:37.916Z,4.50
2018-04-19T17:56:06.019Z,4.50
2018-04-19T17:58:34.114Z,6.13
2018-04-19T18:01:02.220Z,4.10
2018-04-19T18:03:30.303Z,4.50
2018-04-19T18:05:58.402Z,3.93
2018-04-19T18:08:26.502Z,4.87
2018-04-19T18:10:54.588Z,4.23
2018-04-19T18:13:22.660Z,4.27
2018-04-19T18:15:50.743Z,4.27
2018-04-19T18:18:18.830Z,3.90
2018-04-19T18:20:46.978Z,4.33
2018-04-19T18:23:15.058Z,5.00
2018-04-19T18:25:43.145Z,4.77
2018-04-19T18:28:11.267Z,4.73
2018-04-19T18:30:39.383Z,4.23
2018-04-19T18:33:08.259Z,4.10
2018-04-19T18:35:36.352Z,4.97
2018-04-19T18:38:04.440Z,5.80
2018-04-19T18:40:33.557Z,5.07
2018-04-19T18:43:02.051Z,9.00
2018-04-19T18:45:30.412Z,7.50
2018-04-19T18:47:59.415Z,5.13
2018-04-19T18:50:27.503Z,4.53
2018-04-19T18:52:55.604Z,4.87
2018-04-19T18:55:25.196Z,4.80
2018-04-19T18:57:53.324Z,5.33
2018-04-19T19:00:22.182Z,6.20
2018-04-19T19:02:50.305Z,12.30
2018-04-19T19:05:19.194Z,9.00
2018-04-19T19:07:47.316Z,6.40
2018-04-19T19:10:15.429Z,6.20
2018-04-19T19:12:43.559Z,12.47
2018-04-19T19:15:23.004Z,10.80
2018-04-19T19:18:03.192Z,8.67
2018-04-19T19:20:32.060Z,10.13
2018-04-19T19:23:00.163Z,8.97
2018-04-19T19:25:28.435Z,10.03
2018-04-19T19:27:56.640Z,10.33
2018-04-19T19:30:24.745Z,12.07
2018-04-19T19:32:53.617Z,12.27
2018-04-19T19:35:22.616Z,13.43
2018-04-19T19:37:50.726Z,8.97
2018-04-19T19:40:19.589Z,8.97
2018-04-19T19:42:47.799Z,8.53
2018-04-19T19:45:15.958Z,9.13
2018-04-19T19:47:44.110Z,9.77
2018-04-19T19:50:12.194Z,10.87
2018-04-19T19:52:40.411Z,9.37
2018-04-19T19:55:08.487Z,8.90
2018-04-19T19:57:36.625Z,10.17
2018-04-19T20:00:04.707Z,9.57
2018-04-19T20:02:32.840Z,10.10
2018-04-19T20:05:00.964Z,12.23
2018-04-19T20:07:29.093Z,10.50
2018-04-19T20:09:57.977Z,9.43
2018-04-19T20:12:26.847Z,9.07
2018-04-19T20:14:54.959Z,10.13
2018-04-19T20:17:23.112Z,10.07
2018-04-19T20:19:51.199Z,9.73
2018-04-19T20:22:19.304Z,10.77
2018-04-19T20:24:47.413Z,9.97
2018-04-19T20:27:16.290Z,11.40
2018-04-19T20:29:45.152Z,12.23
2018-04-19T20:32:13.291Z,9.77
2018-04-19T20:34:42.913Z,10.43
2018-04-19T20:37:11.762Z,10.83
2018-04-19T20:39:39.868Z,9.80
2018-04-19T20:42:07.952Z,9.20
2018-04-19T20:44:36.066Z,9.43
2018-04-19T20:47:04.155Z,9.97
2018-04-19T20:49:32.991Z,9.13
2018-04-19T20:52:01.114Z,8.47
2018-04-19T20:54:29.261Z,12.20
2018-04-19T20:56:57.369Z,9.60
2018-04-19T20:59:25.455Z,17.27
2018-04-19T21:01:53.572Z,12.90
2018-04-19T21:04:21.688Z,11.17
2018-04-19T21:06:49.800Z,11.13
2018-04-19T21:09:17.952Z,12.80
2018-04-19T21:11:46.817Z,10.80
2018-04-19T21:14:14.895Z,10.23
2018-04-19T21:16:43.058Z,9.90
2018-04-19T21:19:11.154Z,9.63
2018-04-19T21:21:39.265Z,10.60
2018-04-19T21:24:07.392Z,9.93
2018-04-19T21:26:35.498Z,9.80
2018-04-19T21:29:03.661Z,10.37
2018-04-19T21:31:31.767Z,11.07
2018-04-19T21:33:59.920Z,11.77
2018-04-19T21:36:28.804Z,12.33
2018-04-19T21:38:56.962Z,10.67
2018-04-19T21:41:25.107Z,10.27
2018-04-19T21:43:53.945Z,11.07
2018-04-19T21:46:22.090Z,10.77
2018-04-19T21:48:50.986Z,11.83
2018-04-19T21:51:20.565Z,11.10
2018-04-19T21:53:48.709Z,10.37
2018-04-19T21:56:16.793Z,9.93
2018-04-19T21:58:44.902Z,10.17
2018-04-19T22:01:13.059Z,11.00
2018-04-19T22:03:41.160Z,11.43
2018-04-19T22:06:09.262Z,11.07
2018-04-19T22:08:37.371Z,9.93
2018-04-19T22:11:05.494Z,10.67
2018-04-19T22:13:34.373Z,10.87
2018-04-19T22:16:02.542Z,11.43
2018-04-19T22:18:30.679Z,10.87
2018-04-19T22:20:59.535Z,9.27
2018-04-19T22:23:27.651Z,9.83
2018-04-19T22:25:56.527Z,9.33
2018-04-19T22:28:24.629Z,10.33
2018-04-19T22:30:53.512Z,10.20
2018-04-19T22:33:21.626Z,11.27
2018-04-19T22:35:50.520Z,10.40
2018-04-19T22:38:18.640Z,11.00
2018-04-19T22:40:46.849Z,10.97
2018-04-19T22:43:15.769Z,10.83
2018-04-19T22:45:43.920Z,9.83
2018-04-19T22:48:12.011Z,9.80
2018-04-19T22:50:40.120Z,10.27
2018-04-19T22:53:08.273Z,10.53
2018-04-19T22:55:36.361Z,10.00
2018-04-19T22:58:04.496Z,9.87
2018-04-19T23:00:32.569Z,10.17
2018-04-19T23:03:00.689Z,9.37
2018-04-19T23:05:28.801Z,10.03
2018-04-19T23:07:56.916Z,10.80
2018-04-19T23:10:25.022Z,11.73
2018-04-19T23:12:53.137Z,11.20
2018-04-19T23:15:22.012Z,12.17
2018-04-19T23:17:50.118Z,11.10
2018-04-19T23:20:19.003Z,11.07
2018-04-19T23:22:47.111Z,10.73
2018-04-19T23:25:15.993Z,10.77
2018-04-19T23:27:44.132Z,11.70
2018-04-19T23:30:12.229Z,11.33
2018-04-19T23:32:40.414Z,11.27
2018-04-19T23:35:08.517Z,11.80
2018-04-19T23:37:36.633Z,11.73
2018-04-19T23:40:04.689Z,12.00
2018-04-19T23:42:32.857Z,10.93
2018-04-19T23:45:00.964Z,11.87
2018-04-19T23:47:29.106Z,11.00
2018-04-19T23:49:57.262Z,11.27
2018-04-19T23:52:26.151Z,11.43
2018-04-19T23:54:55.004Z,11.77
2018-04-19T23:57:23.115Z,11.23
2018-04-19T23:59:51.221Z,11.97
